createdAt,value
2018-04-27T00:00:20.512Z,5.37
2018-04-27T00:01:20.384Z,5.37
2018-04-27T00:02:20.259Z,5.32
2018-04-27T00:03:20.132Z,5.28
2018-04-27T00:04:20.005Z,5.32
2018-04-27T00:05:19.879Z,5.34
2018-04-27T00:06:19.751Z,5.46
2018-04-27T00:07:19.625Z,5.46
2018-04-27T00:08:19.498Z,5.37
2018-04-27T00:09:19.371Z,5.38
2018-04-27T00:10:19.244Z,5.46
2018-04-27T00:11:19.119Z,5.48
2018-04-27T00:12:18.990Z,5.46
2018-04-27T00:13:18.863Z,5.27
2018-04-27T00:14:18.736Z,5.20
2018-04-27T00:15:18.612Z,5.13
2018-04-27T00:16:18.482Z,5.17
2018-04-27T00:17:18.357Z,5.10
2018-04-27T00:18:18.229Z,5.12
2018-04-27T00:19:18.103Z,5.13
2018-04-27T00:20:17.976Z,5.14
2018-04-27T00:21:17.848Z,5.05
2018-04-27T00:22:17.720Z,5.07
2018-04-27T00:23:17.592Z,5.01
2018-04-27T00:24:17.465Z,4.94
2018-04-27T00:25:17.338Z,4.94
2018-04-27T00:26:17.245Z,4.83
2018-04-27T00:27:17.085Z,4.86
2018-04-27T00:28:16.953Z,4.83
2018-04-27T00:29:16.827Z,4.72
2018-04-27T00:30:16.712Z,4.77
2018-04-27T00:31:16.572Z,4.75
2018-04-27T00:32:16.448Z,4.73
2018-04-27T00:33:16.318Z,4.69
2018-04-27T00:34:16.259Z,4.75
2018-04-27T00:35:16.065Z,4.67
2018-04-27T00:36:15.937Z,4.55
2018-04-27T00:37:15.810Z,4.62
2018-04-27T00:38:15.684Z,4.57
2018-04-27T00:39:15.558Z,4.61
2018-04-27T00:40:15.428Z,4.62
2018-04-27T00:41:15.305Z,4.59
2018-04-27T00:42:15.173Z,4.52
2018-04-27T00:43:15.044Z,4.50
2018-04-27T00:44:14.915Z,4.52
2018-04-27T00:45:14.789Z,4.51
2018-04-27T00:46:14.665Z,4.42
2018-04-27T00:47:14.536Z,4.46
2018-04-27T00:48:14.407Z,4.44
2018-04-27T00:49:14.281Z,4.50
2018-04-27T00:50:14.152Z,4.39
2018-04-27T00:51:14.023Z,4.43
2018-04-27T00:52:13.895Z,4.42
2018-04-27T00:53:13.764Z,4.37
2018-04-27T00:54:13.638Z,4.50
2018-04-27T00:55:13.510Z,4.44
2018-04-27T00:56:13.381Z,4.47
2018-04-27T00:57:13.256Z,4.47
2018-04-27T00:58:13.127Z,4.47
2018-04-27T00:59:13.003Z,4.40
2018-04-27T01:00:12.871Z,4.37
2018-04-27T01:01:12.743Z,4.40
2018-04-27T01:02:12.617Z,4.43
2018-04-27T01:03:12.489Z,4.40
2018-04-27T01:04:12.359Z,4.37
2018-04-27T01:05:12.234Z,4.37
2018-04-27T01:06:12.103Z,4.40
2018-04-27T01:07:11.976Z,4.33
2018-04-27T01:08:11.850Z,4.34
2018-04-27T01:09:11.721Z,4.29
2018-04-27T01:10:11.594Z,4.28
2018-04-27T01:11:11.465Z,4.36
2018-04-27T01:12:11.336Z,4.40
2018-04-27T01:13:11.210Z,4.39
2018-04-27T01:14:11.081Z,4.46
2018-04-27T01:15:10.953Z,4.42
2018-04-27T01:16:10.823Z,4.43
2018-04-27T01:17:10.694Z,4.40
2018-04-27T01:18:10.568Z,4.46
2018-04-27T01:19:10.439Z,4.43
2018-04-27T01:20:10.315Z,4.57
2018-04-27T01:21:10.183Z,4.54
2018-04-27T01:22:10.057Z,4.42
2018-04-27T01:23:09.931Z,4.47
2018-04-27T01:24:09.801Z,4.47
2018-04-27T01:25:09.674Z,4.52
2018-04-27T01:26:09.543Z,4.42
2018-04-27T01:27:09.419Z,4.34
2018-04-27T01:28:09.289Z,4.32
2018-04-27T01:29:09.161Z,4.25
2018-04-27T01:30:09.033Z,4.26
2018-04-27T01:31:08.906Z,4.28
2018-04-27T01:32:08.779Z,4.29
2018-04-27T01:33:08.649Z,4.24
2018-04-27T01:34:08.520Z,4.22
2018-04-27T01:35:08.394Z,4.26
2018-04-27T01:36:08.264Z,4.26
2018-04-27T01:37:08.138Z,4.16
2018-04-27T01:38:08.008Z,4.21
2018-04-27T01:39:07.881Z,4.12
2018-04-27T01:40:07.753Z,4.12
2018-04-27T01:41:07.625Z,4.12
2018-04-27T01:42:07.496Z,4.21
2018-04-27T01:43:07.368Z,4.16
2018-04-27T01:44:07.242Z,4.16
2018-04-27T01:45:07.114Z,4.15
2018-04-27T01:46:06.990Z,4.16
2018-04-27T01:47:06.859Z,4.15
2018-04-27T01:48:06.730Z,4.14
2018-04-27T01:49:06.602Z,4.12
2018-04-27T01:50:06.474Z,4.16
2018-04-27T01:51:06.348Z,4.12
2018-04-27T01:52:06.217Z,4.12
2018-04-27T01:53:06.090Z,4.18
2018-04-27T01:54:05.960Z,4.22
2018-04-27T01:55:05.834Z,4.19
2018-04-27T01:56:05.704Z,4.21
2018-04-27T01:57:05.574Z,4.21
2018-04-27T01:58:05.449Z,4.29
2018-04-27T01:59:05.322Z,4.37
2018-04-27T02:00:05.194Z,4.32
2018-04-27T02:01:05.063Z,4.34
2018-04-27T02:02:04.938Z,4.34
2018-04-27T02:03:04.818Z,4.29
2018-04-27T02:04:04.679Z,4.33
2018-04-27T02:05:04.553Z,4.34
2018-04-27T02:06:04.424Z,4.32
2018-04-27T02:07:04.295Z,4.24
2018-04-27T02:08:04.172Z,4.19
2018-04-27T02:09:04.040Z,4.18
2018-04-27T02:10:03.910Z,4.24
2018-04-27T02:11:03.786Z,4.15
2018-04-27T02:12:03.655Z,4.19
2018-04-27T02:13:03.528Z,4.14
2018-04-27T02:14:03.400Z,4.14
2018-04-27T02:15:03.270Z,4.15
2018-04-27T02:16:03.143Z,4.12
2018-04-27T02:17:03.013Z,4.14
2018-04-27T02:18:02.889Z,4.14
2018-04-27T02:19:02.761Z,4.08
2018-04-27T02:20:02.631Z,4.03
2018-04-27T02:21:02.501Z,4.01
2018-04-27T02:22:02.376Z,4.07
2018-04-27T02:23:02.246Z,4.01
2018-04-27T02:24:02.120Z,3.96
2018-04-27T02:25:01.988Z,3.90
2018-04-27T02:26:01.861Z,3.88
2018-04-27T02:27:01.736Z,3.86
2018-04-27T02:28:01.606Z,3.89
2018-04-27T02:29:01.477Z,3.92
2018-04-27T02:30:01.349Z,3.85
2018-04-27T02:31:01.223Z,3.90
2018-04-27T02:32:01.093Z,3.76
2018-04-27T02:33:00.972Z,3.72
2018-04-27T02:34:00.837Z,3.70
2018-04-27T02:35:00.711Z,3.92
2018-04-27T02:36:00.575Z,3.76
2018-04-27T02:37:00.451Z,3.72
2018-04-27T02:38:00.321Z,3.83
2018-04-27T02:39:00.190Z,3.83
2018-04-27T02:40:00.064Z,3.80
2018-04-27T02:40:59.935Z,3.80
2018-04-27T02:41:59.806Z,3.75
2018-04-27T02:42:59.679Z,3.75
2018-04-27T02:43:59.550Z,3.82
2018-04-27T02:44:59.427Z,3.80
2018-04-27T02:45:59.291Z,3.80
2018-04-27T02:46:59.164Z,3.80
2018-04-27T02:47:59.032Z,3.78
2018-04-27T02:48:58.911Z,3.71
2018-04-27T02:49:58.779Z,3.75
2018-04-27T02:50:58.650Z,3.75
2018-04-27T02:51:58.519Z,3.70
2018-04-27T02:52:58.392Z,3.80
2018-04-27T02:53:58.264Z,3.71
2018-04-27T02:54:58.137Z,3.64
2018-04-27T02:55:58.007Z,3.75
2018-04-27T02:56:57.877Z,3.71
2018-04-27T02:57:57.750Z,3.60
2018-04-27T02:58:57.622Z,3.68
2018-04-27T02:59:57.493Z,3.62
2018-04-27T03:00:57.363Z,3.60
2018-04-27T03:01:57.235Z,3.64
2018-04-27T03:02:57.106Z,3.70
2018-04-27T03:03:56.979Z,3.65
2018-04-27T03:04:56.860Z,3.58
2018-04-27T03:05:56.721Z,3.72
2018-04-27T03:06:56.594Z,3.52
2018-04-27T03:07:56.466Z,3.72
2018-04-27T03:08:56.332Z,3.65
2018-04-27T03:09:56.204Z,3.65
2018-04-27T03:10:56.074Z,3.53
2018-04-27T03:11:55.948Z,3.42
2018-04-27T03:12:55.817Z,3.60
2018-04-27T03:13:55.691Z,3.54
2018-04-27T03:14:55.559Z,3.57
2018-04-27T03:15:55.433Z,3.57
2018-04-27T03:16:55.302Z,3.58
2018-04-27T03:17:55.175Z,3.52
2018-04-27T03:18:55.051Z,3.46
2018-04-27T03:19:54.914Z,3.57
2018-04-27T03:20:54.788Z,3.62
2018-04-27T03:21:54.659Z,3.57
2018-04-27T03:22:54.527Z,3.61
2018-04-27T03:23:54.497Z,3.57
2018-04-27T03:24:54.276Z,3.67
2018-04-27T03:25:54.146Z,3.64
2018-04-27T03:26:54.020Z,3.61
2018-04-27T03:27:53.884Z,3.65
2018-04-27T03:28:53.761Z,3.61
2018-04-27T03:29:53.626Z,3.64
2018-04-27T03:30:53.503Z,3.67
2018-04-27T03:31:53.371Z,3.71
2018-04-27T03:32:53.243Z,3.67
2018-04-27T03:33:53.115Z,3.52
2018-04-27T03:34:52.984Z,3.67
2018-04-27T03:35:52.856Z,3.57
2018-04-27T03:36:52.725Z,3.58
2018-04-27T03:37:52.601Z,3.54
2018-04-27T03:38:52.468Z,3.53
2018-04-27T03:39:52.342Z,3.64
2018-04-27T03:40:52.214Z,3.58
2018-04-27T03:41:52.083Z,3.70
2018-04-27T03:42:51.953Z,3.64
2018-04-27T03:43:51.827Z,3.62
2018-04-27T03:44:51.696Z,3.61
2018-04-27T03:45:51.567Z,3.62
2018-04-27T03:46:51.443Z,3.61
2018-04-27T03:47:51.311Z,3.75
2018-04-27T03:48:51.179Z,3.65
2018-04-27T03:49:51.052Z,3.78
2018-04-27T03:50:50.927Z,3.76
2018-04-27T03:51:50.842Z,3.71
2018-04-27T03:52:50.670Z,3.76
2018-04-27T03:53:50.537Z,3.76
2018-04-27T03:54:50.412Z,3.68
2018-04-27T03:55:50.279Z,3.62
2018-04-27T03:56:50.149Z,3.68
2018-04-27T03:57:50.022Z,3.80
2018-04-27T03:58:49.895Z,3.75
2018-04-27T03:59:49.764Z,3.76
2018-04-27T04:00:49.635Z,3.79
2018-04-27T04:01:49.508Z,3.82
2018-04-27T04:02:49.380Z,3.75
2018-04-27T04:03:49.252Z,3.85
2018-04-27T04:04:49.125Z,3.86
2018-04-27T04:05:48.993Z,3.90
2018-04-27T04:06:48.864Z,3.86
2018-04-27T04:07:48.733Z,3.96
2018-04-27T04:08:48.641Z,3.82
2018-04-27T04:09:48.477Z,3.83
2018-04-27T04:10:48.350Z,3.76
2018-04-27T04:11:48.269Z,3.78
2018-04-27T04:12:48.091Z,3.85
2018-04-27T04:13:47.964Z,3.85
2018-04-27T04:14:47.835Z,3.76
2018-04-27T04:15:47.705Z,3.82
2018-04-27T04:16:47.577Z,3.89
2018-04-27T04:17:47.445Z,3.86
2018-04-27T04:18:47.319Z,3.85
2018-04-27T04:19:47.188Z,3.90
2018-04-27T04:20:47.063Z,3.94
2018-04-27T04:21:46.932Z,3.89
2018-04-27T04:22:46.806Z,3.89
2018-04-27T04:23:46.673Z,3.92
2018-04-27T04:24:46.544Z,4.03
2018-04-27T04:25:46.417Z,3.94
2018-04-27T04:26:46.287Z,3.88
2018-04-27T04:27:46.159Z,3.96
2018-04-27T04:28:46.029Z,3.92
2018-04-27T04:29:45.904Z,3.94
2018-04-27T04:30:45.773Z,3.94
2018-04-27T04:31:45.646Z,4.00
2018-04-27T04:32:45.512Z,3.88
2018-04-27T04:33:45.384Z,3.90
2018-04-27T04:34:45.259Z,3.90
2018-04-27T04:35:45.128Z,3.97
2018-04-27T04:36:45.000Z,4.07
2018-04-27T04:37:44.873Z,4.16
2018-04-27T04:38:44.747Z,4.14
2018-04-27T04:39:44.617Z,4.37
2018-04-27T04:40:44.487Z,4.47
2018-04-27T04:41:44.357Z,4.50
2018-04-27T04:42:44.233Z,4.57
2018-04-27T04:43:44.102Z,4.58
2018-04-27T04:44:43.975Z,4.59
2018-04-27T04:45:43.847Z,4.61
2018-04-27T04:46:43.719Z,4.84
2018-04-27T04:47:43.589Z,4.76
2018-04-27T04:48:43.459Z,4.80
2018-04-27T04:49:43.330Z,4.89
2018-04-27T04:50:43.202Z,4.88
2018-04-27T04:51:43.076Z,4.86
2018-04-27T04:52:43.032Z,4.94
2018-04-27T04:53:42.821Z,4.92
2018-04-27T04:54:42.693Z,4.91
2018-04-27T04:55:42.564Z,4.96
2018-04-27T04:56:42.436Z,5.02
2018-04-27T04:57:42.308Z,5.01
2018-04-27T04:58:42.181Z,5.01
2018-04-27T04:59:42.052Z,4.95
2018-04-27T05:00:41.923Z,4.89
2018-04-27T05:01:41.797Z,4.95
2018-04-27T05:02:41.715Z,4.95
2018-04-27T05:03:41.540Z,4.88
2018-04-27T05:04:41.415Z,4.92
2018-04-27T05:05:41.283Z,4.79
2018-04-27T05:06:41.157Z,4.75
2018-04-27T05:07:41.028Z,4.77
2018-04-27T05:08:40.902Z,4.88
2018-04-27T05:09:40.776Z,4.98
2018-04-27T05:10:40.688Z,4.99
2018-04-27T05:11:40.518Z,5.09
2018-04-27T05:12:40.390Z,5.30
2018-04-27T05:13:40.261Z,5.23
2018-04-27T05:14:40.137Z,5.40
2018-04-27T05:15:40.009Z,5.43
2018-04-27T05:16:39.880Z,5.59
2018-04-27T05:17:39.751Z,5.70
2018-04-27T05:18:39.624Z,5.91
2018-04-27T05:19:39.498Z,6.01
2018-04-27T05:20:39.368Z,6.00
2018-04-27T05:21:39.242Z,5.96
2018-04-27T05:22:39.115Z,6.13
2018-04-27T05:23:38.994Z,6.10
2018-04-27T05:24:38.860Z,6.32
2018-04-27T05:25:38.732Z,6.35
2018-04-27T05:26:38.604Z,6.51
2018-04-27T05:27:38.477Z,6.56
2018-04-27T05:28:38.355Z,6.77
2018-04-27T05:29:38.310Z,6.79
2018-04-27T05:30:38.096Z,6.94
2018-04-27T05:31:37.970Z,7.02
2018-04-27T05:32:37.844Z,6.91
2018-04-27T05:33:37.715Z,6.97
2018-04-27T05:34:37.591Z,6.80
2018-04-27T05:35:37.466Z,6.63
2018-04-27T05:36:37.337Z,6.51
2018-04-27T05:37:37.210Z,6.61
2018-04-27T05:38:37.084Z,6.73
2018-04-27T05:39:36.958Z,6.98
2018-04-27T05:40:36.838Z,7.13
2018-04-27T05:41:36.704Z,7.19
2018-04-27T05:42:36.584Z,7.29
2018-04-27T05:43:36.450Z,7.20
2018-04-27T05:44:36.324Z,7.34
2018-04-27T05:45:36.198Z,7.37
2018-04-27T05:46:36.073Z,7.52
2018-04-27T05:47:35.944Z,7.44
2018-04-27T05:48:35.820Z,7.49
2018-04-27T05:49:35.693Z,7.50
2018-04-27T05:50:35.568Z,7.47
2018-04-27T05:51:35.439Z,7.53
2018-04-27T05:52:35.314Z,7.45
2018-04-27T05:53:35.189Z,7.44
2018-04-27T05:54:35.064Z,7.42
2018-04-27T05:55:34.990Z,7.49
2018-04-27T05:56:34.809Z,7.45
2018-04-27T05:57:34.683Z,7.53
2018-04-27T05:58:34.557Z,7.55
2018-04-27T05:59:34.430Z,7.63
2018-04-27T06:00:34.306Z,7.66
2018-04-27T06:01:34.181Z,7.77
2018-04-27T06:02:34.055Z,7.67
2018-04-27T06:03:33.930Z,7.66
2018-04-27T06:04:33.863Z,7.53
2018-04-27T06:05:33.679Z,7.50
2018-04-27T06:06:33.551Z,7.42
2018-04-27T06:07:33.426Z,7.32
2018-04-27T06:08:33.300Z,7.24
2018-04-27T06:09:33.176Z,7.13
2018-04-27T06:10:33.048Z,6.97
2018-04-27T06:11:32.923Z,6.77
2018-04-27T06:12:32.795Z,6.73
2018-04-27T06:13:32.672Z,6.76
2018-04-27T06:14:32.545Z,6.72
2018-04-27T06:15:32.418Z,6.86
2018-04-27T06:16:32.291Z,6.79
2018-04-27T06:17:32.168Z,6.89
2018-04-27T06:18:32.040Z,6.86
2018-04-27T06:19:31.915Z,6.86
2018-04-27T06:20:31.789Z,6.99
2018-04-27T06:21:31.664Z,6.97
2018-04-27T06:22:31.539Z,6.97
2018-04-27T06:23:31.415Z,6.97
2018-04-27T06:24:31.286Z,7.02
2018-04-27T06:25:31.160Z,7.08
2018-04-27T06:26:31.036Z,7.16
2018-04-27T06:27:30.907Z,7.13
2018-04-27T06:28:30.784Z,7.22
2018-04-27T06:29:30.656Z,7.27
2018-04-27T06:30:30.530Z,7.26
2018-04-27T06:31:30.406Z,7.34
2018-04-27T06:32:30.280Z,7.35
2018-04-27T06:33:30.156Z,7.34
2018-04-27T06:34:30.027Z,7.37
2018-04-27T06:35:29.899Z,7.40
2018-04-27T06:36:29.773Z,7.38
2018-04-27T06:37:29.654Z,7.26
2018-04-27T06:38:29.528Z,7.32
2018-04-27T06:39:29.455Z,7.34
2018-04-27T06:40:29.272Z,7.38
2018-04-27T06:41:29.147Z,7.47
2018-04-27T06:42:29.020Z,7.53
2018-04-27T06:43:28.895Z,7.67
2018-04-27T06:44:28.777Z,7.71
2018-04-27T06:45:28.644Z,7.78
2018-04-27T06:46:28.519Z,7.79
2018-04-27T06:47:28.390Z,7.81
2018-04-27T06:48:28.265Z,7.87
2018-04-27T06:49:28.141Z,7.90
2018-04-27T06:50:28.015Z,7.96
2018-04-27T06:51:27.900Z,8.07
2018-04-27T06:52:27.766Z,8.18
2018-04-27T06:53:27.640Z,8.26
2018-04-27T06:54:27.513Z,8.50
2018-04-27T06:55:27.387Z,8.88
2018-04-27T06:56:27.261Z,9.20
2018-04-27T06:57:27.142Z,9.27
2018-04-27T06:58:27.016Z,9.32
2018-04-27T06:59:26.977Z,9.49
2018-04-27T07:00:26.765Z,9.61
2018-04-27T07:01:26.640Z,9.67
2018-04-27T07:02:26.513Z,9.81
2018-04-27T07:03:26.389Z,9.57
2018-04-27T07:04:26.264Z,9.50
2018-04-27T07:05:26.140Z,9.10
2018-04-27T07:06:26.015Z,8.97
2018-04-27T07:07:25.890Z,9.04
2018-04-27T07:08:25.765Z,9.06
2018-04-27T07:09:25.647Z,9.24
2018-04-27T07:10:25.516Z,9.32
2018-04-27T07:11:25.393Z,9.34
2018-04-27T07:12:25.268Z,9.40
2018-04-27T07:13:25.143Z,9.40
2018-04-27T07:14:25.021Z,9.35
2018-04-27T07:15:24.892Z,9.40
2018-04-27T07:16:24.770Z,9.49
2018-04-27T07:17:24.646Z,9.38
2018-04-27T07:18:24.523Z,9.50
2018-04-27T07:19:24.400Z,9.45
2018-04-27T07:20:24.272Z,9.31
2018-04-27T07:21:24.156Z,9.40
2018-04-27T07:22:24.025Z,9.49
2018-04-27T07:23:23.901Z,9.57
2018-04-27T07:24:23.778Z,9.71
2018-04-27T07:25:23.652Z,9.97
2018-04-27T07:26:23.529Z,10.14
2018-04-27T07:27:23.402Z,10.40
2018-04-27T07:28:23.278Z,10.56
2018-04-27T07:29:23.157Z,11.01
2018-04-27T07:30:23.038Z,11.31
2018-04-27T07:31:22.908Z,11.80
2018-04-27T07:32:22.785Z,12.24
2018-04-27T07:33:22.663Z,12.39
2018-04-27T07:34:22.538Z,12.38
2018-04-27T07:35:22.419Z,12.52
2018-04-27T07:36:22.298Z,12.37
2018-04-27T07:37:22.171Z,12.33
2018-04-27T07:38:22.120Z,12.52
2018-04-27T07:39:21.925Z,12.85
2018-04-27T07:40:21.805Z,13.04
2018-04-27T07:41:21.680Z,13.12
2018-04-27T07:42:21.561Z,13.22
2018-04-27T07:43:21.432Z,13.17
2018-04-27T07:44:21.317Z,13.33
2018-04-27T07:45:21.277Z,13.38
2018-04-27T07:46:21.069Z,13.33
2018-04-27T07:47:20.946Z,13.32
2018-04-27T07:48:20.824Z,13.33
2018-04-27T07:49:20.704Z,13.43
2018-04-27T07:50:20.581Z,13.51
2018-04-27T07:51:20.457Z,13.43
2018-04-27T07:52:20.343Z,13.46
2018-04-27T07:53:20.218Z,13.46
2018-04-27T07:54:20.096Z,13.62
2018-04-27T07:55:20.016Z,13.79
2018-04-27T07:56:19.851Z,13.84
2018-04-27T07:57:19.733Z,13.62
2018-04-27T07:58:19.608Z,13.52
2018-04-27T07:59:19.487Z,13.49
2018-04-27T08:00:19.367Z,13.44
2018-04-27T08:01:19.250Z,13.58
2018-04-27T08:02:19.140Z,13.69
2018-04-27T08:03:19.003Z,13.70
2018-04-27T08:04:18.884Z,13.73
2018-04-27T08:05:18.761Z,13.83
2018-04-27T08:06:18.641Z,13.91
2018-04-27T08:07:18.572Z,13.56
2018-04-27T08:08:18.399Z,13.41
2018-04-27T08:09:18.278Z,13.69
2018-04-27T08:10:18.157Z,13.73
2018-04-27T08:11:18.044Z,13.58
2018-04-27T08:12:17.914Z,13.46
2018-04-27T08:13:17.794Z,13.36
2018-04-27T08:14:17.672Z,13.36
2018-04-27T08:15:17.549Z,13.47
2018-04-27T08:16:17.429Z,13.02
2018-04-27T08:17:17.308Z,12.70
2018-04-27T08:18:17.188Z,12.69
2018-04-27T08:19:17.064Z,12.62
2018-04-27T08:20:16.944Z,12.31
2018-04-27T08:21:16.823Z,12.39
2018-04-27T08:22:16.700Z,12.31
2018-04-27T08:23:16.580Z,12.33
2018-04-27T08:24:16.457Z,12.52
2018-04-27T08:25:16.338Z,12.54
2018-04-27T08:26:16.215Z,12.85
2018-04-27T08:27:16.094Z,12.89
2018-04-27T08:28:15.973Z,13.15
2018-04-27T08:29:15.852Z,13.21
2018-04-27T08:30:15.751Z,13.36
2018-04-27T08:31:15.607Z,13.27
2018-04-27T08:32:15.483Z,13.14
2018-04-27T08:33:15.363Z,13.24
2018-04-27T08:34:15.243Z,13.51
2018-04-27T08:35:15.122Z,13.56
2018-04-27T08:36:15.040Z,13.76
2018-04-27T08:37:14.885Z,13.88
2018-04-27T08:38:14.757Z,13.96
2018-04-27T08:39:14.641Z,14.24
2018-04-27T08:40:14.559Z,14.32
2018-04-27T08:41:14.394Z,14.19
2018-04-27T08:42:14.274Z,14.06
2018-04-27T08:43:14.154Z,14.06
2018-04-27T08:44:14.031Z,14.43
2018-04-27T08:45:13.909Z,14.53
2018-04-27T08:46:13.788Z,14.72
2018-04-27T08:47:13.668Z,15.02
2018-04-27T08:48:13.547Z,15.05
2018-04-27T08:49:13.429Z,15.41
2018-04-27T08:50:13.308Z,15.60
2018-04-27T08:51:13.187Z,15.74
2018-04-27T08:52:13.068Z,15.72
2018-04-27T08:53:12.944Z,15.70
2018-04-27T08:54:12.826Z,15.92
2018-04-27T08:55:12.707Z,16.04
2018-04-27T08:56:12.588Z,16.14
2018-04-27T08:57:12.468Z,16.48
2018-04-27T08:58:12.349Z,16.49
2018-04-27T08:59:12.227Z,16.52
2018-04-27T09:00:12.107Z,15.94
2018-04-27T09:01:11.990Z,15.70
2018-04-27T09:02:11.871Z,15.75
2018-04-27T09:03:11.749Z,16.11
2018-04-27T09:04:11.632Z,16.14
2018-04-27T09:05:11.513Z,16.33
2018-04-27T09:06:11.397Z,15.89
2018-04-27T09:07:11.275Z,15.84
2018-04-27T09:08:11.156Z,15.96
2018-04-27T09:09:11.036Z,16.12
2018-04-27T09:10:10.916Z,16.31
2018-04-27T09:11:10.801Z,16.74
2018-04-27T09:12:10.679Z,16.59
2018-04-27T09:13:10.559Z,16.56
2018-04-27T09:14:10.441Z,16.49
2018-04-27T09:15:10.323Z,16.15
2018-04-27T09:16:10.231Z,16.06
2018-04-27T09:17:10.084Z,15.96
2018-04-27T09:18:09.965Z,15.89
2018-04-27T09:19:09.845Z,15.60
2018-04-27T09:20:09.728Z,15.84
2018-04-27T09:21:09.609Z,16.14
2018-04-27T09:22:09.488Z,16.20
2018-04-27T09:23:09.369Z,16.49
2018-04-27T09:24:09.248Z,16.62
2018-04-27T09:25:09.129Z,16.14
2018-04-27T09:26:09.010Z,16.00
2018-04-27T09:27:08.891Z,15.93
2018-04-27T09:28:08.773Z,15.88
2018-04-27T09:29:08.652Z,16.01
2018-04-27T09:30:08.534Z,16.20
2018-04-27T09:31:08.414Z,16.58
2018-04-27T09:32:08.298Z,16.81
2018-04-27T09:33:08.180Z,16.93
2018-04-27T09:34:08.060Z,17.08
2018-04-27T09:35:07.939Z,17.14
2018-04-27T09:36:07.821Z,16.99
2018-04-27T09:37:07.703Z,16.77
2018-04-27T09:38:07.585Z,16.73
2018-04-27T09:39:07.465Z,16.83
2018-04-27T09:40:07.348Z,17.07
2018-04-27T09:41:07.308Z,17.17
2018-04-27T09:42:07.110Z,17.06
2018-04-27T09:43:06.987Z,16.20
2018-04-27T09:44:06.869Z,16.11
2018-04-27T09:45:06.750Z,16.31
2018-04-27T09:46:06.631Z,16.85
2018-04-27T09:47:06.514Z,17.32
2018-04-27T09:48:06.397Z,17.48
2018-04-27T09:49:06.278Z,17.57
2018-04-27T09:50:06.158Z,17.73
2018-04-27T09:51:06.053Z,17.78
2018-04-27T09:52:05.921Z,17.51
2018-04-27T09:53:05.805Z,16.88
2018-04-27T09:54:05.687Z,16.83
2018-04-27T09:55:05.566Z,16.89
2018-04-27T09:56:05.447Z,17.33
2018-04-27T09:57:05.329Z,17.44
2018-04-27T09:58:05.211Z,17.57
2018-04-27T09:59:05.090Z,18.07
2018-04-27T10:00:04.973Z,18.39
2018-04-27T10:01:04.859Z,18.43
2018-04-27T10:02:04.736Z,18.21
2018-04-27T10:03:04.618Z,18.10
2018-04-27T10:04:04.499Z,17.85
2018-04-27T10:05:04.381Z,18.10
2018-04-27T10:06:04.262Z,17.69
2018-04-27T10:07:04.144Z,17.99
2018-04-27T10:08:04.026Z,18.39
2018-04-27T10:09:03.907Z,18.44
2018-04-27T10:10:03.791Z,18.47
2018-04-27T10:11:03.671Z,18.37
2018-04-27T10:12:03.553Z,18.31
2018-04-27T10:13:03.445Z,18.31
2018-04-27T10:14:03.320Z,18.29
2018-04-27T10:15:03.245Z,18.17
2018-04-27T10:16:03.082Z,18.18
2018-04-27T10:17:02.965Z,17.28
2018-04-27T10:18:02.848Z,16.89
2018-04-27T10:19:02.730Z,16.99
2018-04-27T10:20:02.611Z,17.30
2018-04-27T10:21:02.494Z,17.30
2018-04-27T10:22:02.378Z,17.71
2018-04-27T10:23:02.259Z,17.87
2018-04-27T10:24:02.139Z,18.17
2018-04-27T10:25:02.022Z,17.92
2018-04-27T10:26:01.905Z,18.02
2018-04-27T10:27:01.788Z,18.15
2018-04-27T10:28:01.672Z,18.29
2018-04-27T10:29:01.552Z,18.00
2018-04-27T10:30:01.435Z,17.71
2018-04-27T10:31:01.333Z,17.84
2018-04-27T10:32:01.195Z,17.51
2018-04-27T10:33:01.086Z,17.33
2018-04-27T10:34:00.962Z,17.33
2018-04-27T10:35:00.893Z,16.93
2018-04-27T10:36:00.727Z,16.70
2018-04-27T10:37:00.606Z,16.53
2018-04-27T10:38:00.492Z,16.50
2018-04-27T10:39:00.379Z,16.55
2018-04-27T10:40:00.258Z,16.58
2018-04-27T10:41:00.136Z,16.48
2018-04-27T10:42:00.015Z,16.68
2018-04-27T10:42:59.907Z,16.78
2018-04-27T10:43:59.777Z,17.15
2018-04-27T10:44:59.665Z,17.10
2018-04-27T10:45:59.538Z,17.28
2018-04-27T10:46:59.419Z,17.18
2018-04-27T10:47:59.300Z,17.38
2018-04-27T10:48:59.187Z,17.54
2018-04-27T10:49:59.064Z,17.50
2018-04-27T10:50:58.948Z,17.32
2018-04-27T10:51:58.829Z,17.32
2018-04-27T10:52:58.707Z,17.33
2018-04-27T10:53:58.590Z,17.11
2018-04-27T10:54:58.471Z,17.04
2018-04-27T10:55:58.351Z,16.90
2018-04-27T10:56:58.234Z,16.95
2018-04-27T10:57:58.113Z,16.88
2018-04-27T10:58:57.996Z,17.26
2018-04-27T10:59:57.876Z,17.55
2018-04-27T11:00:57.757Z,17.74
2018-04-27T11:01:57.641Z,17.81
2018-04-27T11:02:57.520Z,18.46
2018-04-27T11:03:57.404Z,18.84
2018-04-27T11:04:57.283Z,18.82
2018-04-27T11:05:57.168Z,19.01
2018-04-27T11:06:57.047Z,19.35
2018-04-27T11:07:56.929Z,19.66
2018-04-27T11:08:56.813Z,19.18
2018-04-27T11:09:56.701Z,19.05
2018-04-27T11:10:56.593Z,18.83
2018-04-27T11:11:56.460Z,18.86
2018-04-27T11:12:56.342Z,19.36
2018-04-27T11:13:56.225Z,19.14
2018-04-27T11:14:56.108Z,19.25
2018-04-27T11:15:55.992Z,19.29
2018-04-27T11:16:56.226Z,19.35
2018-04-27T11:17:55.759Z,19.57
2018-04-27T11:18:55.640Z,19.11
2018-04-27T11:19:55.522Z,19.88
2018-04-27T11:20:55.406Z,19.54
2018-04-27T11:21:55.289Z,19.06
2018-04-27T11:22:55.169Z,19.02
2018-04-27T11:23:55.054Z,18.42
2018-04-27T11:24:54.938Z,18.91
2018-04-27T11:25:54.820Z,19.18
2018-04-27T11:26:54.704Z,18.67
2018-04-27T11:27:54.589Z,19.02
2018-04-27T11:28:54.477Z,18.97
2018-04-27T11:29:54.353Z,18.33
2018-04-27T11:30:54.240Z,18.12
2018-04-27T11:31:54.122Z,17.92
2018-04-27T11:32:54.003Z,17.78
2018-04-27T11:33:53.885Z,17.89
2018-04-27T11:34:53.771Z,17.66
2018-04-27T11:35:53.656Z,17.74
2018-04-27T11:36:53.539Z,17.66
2018-04-27T11:37:53.417Z,18.33
2018-04-27T11:38:53.296Z,18.49
2018-04-27T11:39:53.180Z,18.86
2018-04-27T11:40:53.061Z,18.99
2018-04-27T11:41:52.945Z,18.42
2018-04-27T11:42:52.827Z,18.00
2018-04-27T11:43:52.710Z,17.81
2018-04-27T11:44:52.590Z,17.59
2018-04-27T11:45:52.476Z,17.57
2018-04-27T11:46:52.355Z,17.59
2018-04-27T11:47:52.237Z,18.07
2018-04-27T11:48:52.120Z,18.36
2018-04-27T11:49:52.003Z,18.44
2018-04-27T11:50:51.884Z,18.31
2018-04-27T11:51:51.767Z,18.40
2018-04-27T11:52:51.648Z,18.39
2018-04-27T11:53:51.531Z,18.44
2018-04-27T11:54:51.411Z,18.36
2018-04-27T11:55:51.296Z,17.97
2018-04-27T11:56:51.179Z,17.71
2018-04-27T11:57:51.061Z,17.67
2018-04-27T11:58:50.942Z,17.62
2018-04-27T11:59:50.827Z,18.00
2018-04-27T12:00:50.767Z,18.17
2018-04-27T12:01:50.592Z,18.21
2018-04-27T12:02:50.473Z,18.10
2018-04-27T12:03:50.360Z,18.02
2018-04-27T12:04:50.233Z,17.70
2018-04-27T12:05:50.115Z,17.53
2018-04-27T12:06:49.998Z,17.57
2018-04-27T12:07:49.880Z,17.95
2018-04-27T12:08:49.765Z,18.04
2018-04-27T12:09:49.645Z,17.82
2018-04-27T12:10:49.524Z,17.64
2018-04-27T12:11:49.411Z,18.24
2018-04-27T12:12:49.289Z,18.18
2018-04-27T12:13:49.170Z,18.33
2018-04-27T12:14:49.053Z,18.47
2018-04-27T12:15:48.935Z,19.57
2018-04-27T12:16:48.815Z,18.83
2018-04-27T12:17:48.700Z,18.68
2018-04-27T12:18:48.582Z,18.52
2018-04-27T12:19:48.467Z,18.21
2018-04-27T12:20:48.344Z,17.74
2018-04-27T12:21:48.226Z,17.55
2018-04-27T12:22:48.106Z,17.33
2018-04-27T12:23:47.996Z,17.18
2018-04-27T12:24:47.871Z,17.25
2018-04-27T12:25:47.752Z,17.29
2018-04-27T12:26:47.634Z,17.30
2018-04-27T12:27:47.516Z,17.30
2018-04-27T12:28:47.398Z,17.22
2018-04-27T12:29:47.279Z,17.00
2018-04-27T12:30:47.161Z,17.03
2018-04-27T12:31:47.121Z,16.98
2018-04-27T12:32:46.924Z,17.03
2018-04-27T12:33:46.806Z,16.96
2018-04-27T12:34:46.692Z,17.03
2018-04-27T12:35:46.567Z,17.00
2018-04-27T12:36:46.450Z,17.44
2018-04-27T12:37:46.329Z,17.03
2018-04-27T12:38:46.250Z,16.89
2018-04-27T12:39:46.090Z,16.95
2018-04-27T12:40:45.972Z,16.92
2018-04-27T12:41:45.853Z,16.77
2018-04-27T12:42:45.735Z,16.58
2018-04-27T12:43:45.615Z,16.74
2018-04-27T12:44:45.495Z,16.68
2018-04-27T12:45:45.377Z,16.63
2018-04-27T12:46:45.258Z,16.70
2018-04-27T12:47:45.138Z,16.63
2018-04-27T12:48:45.019Z,16.63
2018-04-27T12:49:44.899Z,16.58
2018-04-27T12:50:44.780Z,16.65
2018-04-27T12:51:44.661Z,16.52
2018-04-27T12:52:44.542Z,16.42
2018-04-27T12:53:44.422Z,16.40
2018-04-27T12:54:44.303Z,16.38
2018-04-27T12:55:44.182Z,16.31
2018-04-27T12:56:44.063Z,16.31
2018-04-27T12:57:43.945Z,16.33
2018-04-27T12:58:43.825Z,16.34
2018-04-27T12:59:43.704Z,16.20
2018-04-27T13:00:43.583Z,16.20
2018-04-27T13:01:43.464Z,16.22
2018-04-27T13:02:43.345Z,16.09
2018-04-27T13:03:43.224Z,16.04
2018-04-27T13:04:43.105Z,16.09
2018-04-27T13:05:42.984Z,16.12